Time;durP1;ratioP1;P1;durP2;ratioP2;P2;SDS_P1;SDS_P2;PMS_P1;PMS_P2;Temp;Humidity;BMP_temperature;BMP_pressure;BME280_temperature;BME280_humidity;BME280_pressure;Samples;Min_cycle;Max_cycle;Signal;HPM_P1;HPM_P2
2022/07/13 00:01:46;;;;;;;0.00;0.00;;;17.10;99.90;16.20;98026.00;;;;5071686;28;20304;-70
2022/07/13 00:04:14;;;;;;;0.00;0.00;;;17.20;99.90;16.20;98027.00;;;;5070788;28;20563;-70
2022/07/13 00:06:43;;;;;;;0.00;0.00;;;17.10;99.90;16.10;98034.00;;;;5066736;28;20212;-70
2022/07/13 00:09:11;;;;;;;0.00;0.00;;;17.10;99.90;16.00;98024.00;;;;5069639;28;20720;-69
2022/07/13 00:11:40;;;;;;;0.00;0.00;;;16.90;99.90;15.90;98015.00;;;;5071701;28;20269;-72
2022/07/13 00:14:10;;;;;;;0.05;0.05;;;16.80;99.90;15.70;98014.00;;;;5070634;28;20190;-72
2022/07/13 00:16:38;;;;;;;0.00;0.00;;;16.70;99.90;15.60;98029.00;;;;5070360;28;20209;-73
2022/07/13 00:19:07;;;;;;;0.00;0.00;;;16.60;99.90;15.50;97952.00;;;;5069578;28;20267;-73
2022/07/13 00:21:35;;;;;;;0.00;0.00;;;16.60;99.90;15.50;98013.00;;;;5073642;28;20649;-74
2022/07/13 00:24:03;;;;;;;0.00;0.00;;;16.50;99.90;15.50;98016.00;;;;5074841;28;20203;-73
2022/07/13 00:26:31;;;;;;;0.00;0.00;;;16.40;99.90;15.50;98011.00;;;;5074979;28;20194;-73
2022/07/13 00:29:00;;;;;;;0.00;0.00;;;16.30;99.90;15.50;98012.00;;;;5073309;28;20217;-71
2022/07/13 00:31:28;;;;;;;0.00;0.00;;;16.30;99.90;15.40;98022.00;;;;5073944;28;20242;-72
2022/07/13 00:33:58;;;;;;;0.00;0.00;;;16.30;99.90;15.40;98008.00;;;;5073490;28;20198;-72
2022/07/13 00:36:26;;;;;;;0.00;0.00;;;16.40;99.90;15.40;98001.00;;;;5074738;28;20193;-72
2022/07/13 00:38:55;;;;;;;0.08;0.08;;;16.30;99.90;15.30;98003.00;;;;5074859;28;20216;-72
2022/07/13 00:41:23;;;;;;;0.10;0.10;;;16.30;99.90;15.30;97966.00;;;;5090199;28;20265;-73
2022/07/13 00:43:52;;;;;;;0.00;0.00;;;16.20;99.90;15.30;98000.00;;;;5073732;28;20194;-73
2022/07/13 00:46:21;;;;;;;0.00;0.00;;;16.20;99.90;15.30;97999.00;;;;5073417;28;20200;-73
2022/07/13 00:48:52;;;;;;;0.00;0.00;;;16.20;99.90;15.30;97999.00;;;;5071920;28;20224;-73
2022/07/13 00:51:21;;;;;;;0.00;0.00;;;16.20;99.90;15.20;97996.00;;;;5074307;28;20528;-73
2022/07/13 00:53:49;;;;;;;0.00;0.00;;;16.10;99.90;15.20;97989.00;;;;5072578;28;20766;-73
2022/07/13 00:56:18;;;;;;;0.10;0.10;;;16.10;99.90;15.20;97998.00;;;;5074137;28;20194;-72
2022/07/13 00:58:47;;;;;;;0.00;0.00;;;16.10;99.90;15.10;97998.00;;;;5074000;28;20214;-72
2022/07/13 01:01:16;;;;;;;0.00;0.00;;;16.00;99.90;15.30;97999.00;;;;5072825;28;20312;-73
2022/07/13 01:03:45;;;;;;;0.00;0.00;;;16.30;99.90;15.30;97984.00;;;;5073479;28;20221;-72
2022/07/13 01:06:14;;;;;;;0.10;0.10;;;16.30;99.90;15.20;97966.00;;;;5077965;28;20193;-75
2022/07/13 01:08:42;;;;;;;0.00;0.00;;;16.20;99.90;15.20;97986.00;;;;5073873;28;20228;-76
2022/07/13 01:11:10;;;;;;;0.00;0.00;;;16.20;99.90;15.10;97985.00;;;;5067176;28;20213;-76
2022/07/13 01:13:40;;;;;;;0.00;0.00;;;16.10;99.90;15.20;97967.00;;;;5074660;28;20252;-76
2022/07/13 01:16:10;;;;;;;0.00;0.00;;;16.10;99.90;15.10;97982.00;;;;5072872;28;20228;-76
2022/07/13 01:18:39;;;;;;;0.00;0.00;;;16.10;99.90;15.10;97975.00;;;;5072995;28;20223;-76
2022/07/13 01:21:12;;;;;;;0.00;0.00;;;16.10;99.90;14.10;97947.00;;;;5079953;28;20245;-76
2022/07/13 01:23:42;;;;;;;0.03;0.03;;;16.10;99.90;15.10;97978.00;;;;5083627;28;20232;-75
2022/07/13 01:26:12;;;;;;;0.00;0.00;;;16.10;99.90;15.20;97937.00;;;;5075759;28;20216;-75
2022/07/13 01:28:40;;;;;;;0.00;0.00;;;16.00;99.90;15.20;97978.00;;;;5073656;28;20217;-75
2022/07/13 01:31:08;;;;;;;0.00;0.00;;;16.20;99.90;15.20;97964.00;;;;5072135;28;20204;-75
2022/07/13 01:33:36;;;;;;;0.00;0.00;;;16.10;99.90;15.10;97975.00;;;;5072979;28;20193;-75
2022/07/13 01:36:05;;;;;;;0.00;0.00;;;16.10;99.90;15.20;97971.00;;;;5071286;28;20198;-74
2022/07/13 01:38:33;;;;;;;0.00;0.00;;;16.00;99.90;15.20;97967.00;;;;5073176;28;20217;-75
2022/07/13 01:41:06;;;;;;;0.00;0.00;;;16.10;99.90;15.20;97957.00;;;;5073552;28;20201;-74
2022/07/13 01:43:36;;;;;;;0.00;0.00;;;16.00;99.90;15.10;97952.00;;;;5072493;28;20307;-75
2022/07/13 01:46:04;;;;;;;0.05;0.05;;;16.00;99.90;15.00;97942.00;;;;5053583;28;20190;-76
2022/07/13 01:48:32;;;;;;;0.00;0.00;;;16.00;99.90;15.20;97928.00;;;;5068901;28;20226;-75
2022/07/13 01:51:00;;;;;;;0.00;0.00;;;16.10;99.90;15.10;97939.00;;;;5051988;28;20209;-73
2022/07/13 01:53:28;;;;;;;0.00;0.00;;;16.00;99.90;15.00;97943.00;;;;5073006;28;20190;-73
2022/07/13 01:55:57;;;;;;;0.00;0.00;;;16.00;99.90;15.00;97948.00;;;;5051813;28;20194;-73
2022/07/13 01:58:27;;;;;;;0.00;0.00;;;15.90;99.90;14.90;97935.00;;;;5053096;28;20246;-74
2022/07/13 02:00:55;;;;;;;0.00;0.00;;;15.90;99.90;15.10;97933.00;;;;5051730;28;20297;-74
2022/07/13 02:03:24;;;;;;;0.00;0.00;;;15.90;99.90;15.20;97948.00;;;;5062410;28;20268;-74
2022/07/13 02:05:54;;;;;;;0.00;0.00;;;16.00;99.90;15.10;97935.00;;;;5070719;28;20190;-73
2022/07/13 02:08:27;;;;;;;0.00;0.00;;;15.90;99.90;15.00;97952.00;;;;5104719;28;20314;-73
2022/07/13 02:10:56;;;;;;;0.00;0.00;;;16.00;99.90;15.00;97954.00;;;;5103563;27;20193;-74
2022/07/13 02:13:24;;;;;;;0.00;0.00;;;15.90;99.90;15.10;97945.00;;;;5070736;28;20193;-72
2022/07/13 02:15:54;;;;;;;0.00;0.00;;;15.90;99.90;15.20;97955.00;;;;5072140;28;20189;-73
2022/07/13 02:18:22;;;;;;;0.00;0.00;;;16.00;99.90;15.20;97945.00;;;;5069748;28;20205;-73
2022/07/13 02:20:50;;;;;;;0.00;0.00;;;16.10;99.90;15.30;97950.00;;;;5072499;28;20197;-74
2022/07/13 02:23:19;;;;;;;0.00;0.00;;;16.10;99.90;15.30;97943.00;;;;5070740;28;20604;-74
2022/07/13 02:25:47;;;;;;;0.00;0.00;;;16.20;99.90;15.30;97933.00;;;;5088267;28;20204;-74
2022/07/13 02:28:15;;;;;;;0.00;0.00;;;16.10;99.90;15.30;97936.00;;;;5068055;28;20290;-74
2022/07/13 02:30:44;;;;;;;0.00;0.00;;;16.10;99.90;15.20;97882.00;;;;5052172;28;20252;-73
2022/07/13 02:33:15;;;;;;;0.05;0.05;;;16.00;99.90;15.20;97932.00;;;;5059948;28;20210;-73
2022/07/13 02:35:44;;;;;;;0.00;0.00;;;16.00;99.90;15.10;97937.00;;;;5070902;28;20243;-75
2022/07/13 02:38:12;;;;;;;0.00;0.00;;;15.90;99.90;15.10;97925.00;;;;5070817;28;20208;-75
2022/07/13 02:40:40;;;;;;;0.00;0.00;;;15.80;99.90;15.10;97928.00;;;;5071743;28;20197;-75
2022/07/13 02:43:08;;;;;;;0.00;0.00;;;15.90;99.90;15.10;97874.00;;;;5069857;28;20217;-75
2022/07/13 02:45:36;;;;;;;0.00;0.00;;;15.90;99.90;15.10;97923.00;;;;5072224;28;20570;-75
2022/07/13 02:48:05;;;;;;;0.00;0.00;;;15.90;99.90;15.00;97923.00;;;;5070707;28;20194;-75
2022/07/13 02:50:34;;;;;;;0.00;0.00;;;15.80;99.90;15.00;97931.00;;;;5070195;28;20212;-74
2022/07/13 02:53:02;;;;;;;0.05;0.05;;;15.90;99.90;15.10;97935.00;;;;5072027;28;20280;-72
2022/07/13 02:55:30;;;;;;;0.00;0.00;;;15.90;99.90;15.00;97891.00;;;;5068190;28;20209;-72
2022/07/13 02:58:00;;;;;;;0.00;0.00;;;15.80;99.90;15.00;97909.00;;;;5066999;28;20778;-72
2022/07/13 03:00:29;;;;;;;0.00;0.00;;;15.80;99.90;15.00;97902.00;;;;5061009;28;20201;-71
2022/07/13 03:02:57;;;;;;;0.10;0.10;;;15.80;99.90;15.10;97914.00;;;;5058062;28;20756;-72
2022/07/13 03:05:25;;;;;;;0.00;0.00;;;15.90;99.90;15.00;97890.00;;;;5070000;28;20692;-72
2022/07/13 03:07:55;;;;;;;0.00;0.00;;;15.80;99.90;15.00;97901.00;;;;5074319;28;20679;-72
2022/07/13 03:10:24;;;;;;;0.00;0.00;;;15.90;99.90;15.10;97900.00;;;;5070480;28;20589;-72
2022/07/13 03:12:56;;;;;;;0.00;0.00;;;15.90;99.90;15.00;97899.00;;;;5070781;28;20222;-72
2022/07/13 03:15:24;;;;;;;0.00;0.00;;;15.80;99.90;15.10;97889.00;;;;5070192;28;20284;-72
2022/07/13 03:17:53;;;;;;;0.00;0.00;;;15.90;99.90;15.10;97903.00;;;;5069544;28;20296;-72
2022/07/13 03:20:21;;;;;;;0.10;0.10;;;16.00;99.90;15.20;97891.00;;;;5071917;28;20579;-72
2022/07/13 03:22:51;;;;;;;0.00;0.00;;;16.00;99.90;15.20;97887.00;;;;5071231;28;20221;-72
2022/07/13 03:25:21;;;;;;;0.00;0.00;;;16.00;99.90;15.20;97898.00;;;;5070093;28;20208;-72
2022/07/13 03:27:54;;;;;;;0.10;0.10;;;16.00;99.90;15.20;97903.00;;;;5070066;28;20281;-72
2022/07/13 03:30:22;;;;;;;0.00;0.00;;;16.00;99.90;15.10;97889.00;;;;5071661;28;20244;-73
2022/07/13 03:32:50;;;;;;;0.00;0.00;;;15.90;99.90;15.20;97885.00;;;;5070604;28;20213;-72
2022/07/13 03:35:19;;;;;;;0.00;0.00;;;16.10;99.90;15.30;97900.00;;;;5069284;28;20208;-72
2022/07/13 03:37:49;;;;;;;0.00;0.00;;;16.10;99.90;15.30;97894.00;;;;5070764;28;20197;-72
2022/07/13 03:40:19;;;;;;;0.00;0.00;;;16.10;99.90;15.30;97868.00;;;;5080265;28;20633;-72
2022/07/13 03:42:51;;;;;;;0.00;0.00;;;16.10;99.90;15.30;97874.00;;;;5084807;28;20226;-73
2022/07/13 03:45:20;;;;;;;0.00;0.00;;;16.20;99.90;15.30;97871.00;;;;5081790;28;20198;-72
2022/07/13 03:47:48;;;;;;;0.00;0.00;;;16.20;99.90;15.20;97871.00;;;;5071159;28;20217;-72
2022/07/13 03:50:17;;;;;;;0.00;0.00;;;16.10;99.90;15.30;97878.00;;;;5078200;28;20849;-72
2022/07/13 03:52:46;;;;;;;0.05;0.05;;;16.20;99.90;15.40;97877.00;;;;5088634;28;20194;-72
2022/07/13 03:55:17;;;;;;;0.00;0.00;;;16.30;99.90;15.20;97872.00;;;;5090194;28;20189;-72
2022/07/13 03:57:46;;;;;;;0.00;0.00;;;16.10;99.90;15.30;97838.00;;;;5084272;28;20227;-72
2022/07/13 04:00:16;;;;;;;0.00;0.00;;;16.20;99.90;15.40;97820.00;;;;5099733;28;20273;-72
2022/07/13 04:02:49;;;;;;;0.00;0.00;;;16.20;99.90;15.40;97886.00;;;;5089641;28;20284;-72
2022/07/13 04:05:19;;;;;;;0.00;0.00;;;16.20;99.90;15.30;97879.00;;;;5103394;28;20209;-72
2022/07/13 04:07:48;;;;;;;0.00;0.00;;;16.20;99.90;15.30;97875.00;;;;5099101;28;20258;-72
2022/07/13 04:10:18;;;;;;;0.00;0.00;;;16.10;99.90;15.40;97882.00;;;;5081101;28;20225;-72
2022/07/13 04:12:48;;;;;;;0.10;0.10;;;16.10;99.90;15.40;97856.00;;;;5084404;28;20224;-71
2022/07/13 04:15:18;;;;;;;0.08;0.08;;;16.20;99.90;15.40;97883.00;;;;5078171;28;20209;-72
2022/07/13 04:17:48;;;;;;;0.00;0.00;;;16.20;99.90;15.60;97877.00;;;;5075359;28;20284;-72
2022/07/13 04:20:16;;;;;;;0.00;0.00;;;16.30;99.90;15.70;97875.00;;;;5075227;28;20228;-72
2022/07/13 04:22:47;;;;;;;0.00;0.00;;;16.40;99.90;15.60;97851.00;;;;5103908;28;20232;-72
2022/07/13 04:25:16;;;;;;;0.00;0.00;;;16.40;99.90;15.60;97857.00;;;;5068704;28;20189;-72
2022/07/13 04:27:46;;;;;;;0.00;0.00;;;16.30;99.90;15.50;97805.00;;;;5074071;28;20239;-72
2022/07/13 04:30:17;;;;;;;0.00;0.00;;;16.30;99.90;15.60;97842.00;;;;5071835;28;20214;-72
2022/07/13 04:32:45;;;;;;;0.00;0.00;;;16.30;99.90;15.60;97859.00;;;;5074716;28;20208;-72
2022/07/13 04:35:16;;;;;;;0.03;0.03;;;16.40;99.90;15.60;97866.00;;;;5091891;28;20564;-72
2022/07/13 04:37:47;;;;;;;0.00;0.00;;;16.40;99.90;15.70;97858.00;;;;5056492;28;20201;-73
2022/07/13 04:40:15;;;;;;;0.00;0.00;;;16.50;99.90;15.70;97861.00;;;;5100901;28;20245;-72
2022/07/13 04:42:43;;;;;;;0.00;0.00;;;16.40;99.90;15.70;97861.00;;;;5073408;28;20754;-72
2022/07/13 04:45:11;;;;;;;0.00;0.00;;;16.50;99.90;15.70;97866.00;;;;5054815;28;20208;-73
2022/07/13 04:47:41;;;;;;;0.00;0.00;;;16.50;99.90;15.70;97793.00;;;;5059826;28;20229;-73
2022/07/13 04:50:10;;;;;;;0.00;0.00;;;16.50;99.90;15.70;97853.00;;;;5080907;28;20308;-73
2022/07/13 04:52:38;;;;;;;0.00;0.00;;;16.50;99.90;15.70;97832.00;;;;5073368;28;20225;-72
2022/07/13 04:55:09;;;;;;;0.00;0.00;;;16.50;99.90;15.90;97793.00;;;;5072976;28;20288;-73
2022/07/13 04:57:38;;;;;;;0.00;0.00;;;16.60;99.90;16.00;97848.00;;;;5090468;28;20374;-73
2022/07/13 05:00:08;;;;;;;0.00;0.00;;;16.70;99.90;15.90;97853.00;;;;5074374;28;20209;-73
2022/07/13 05:02:38;;;;;;;0.00;0.00;;;16.70;99.90;16.00;97817.00;;;;5067537;28;20579;-73
2022/07/13 05:05:09;;;;;;;0.00;0.00;;;16.70;99.90;16.10;97852.00;;;;5069369;28;20315;-73
2022/07/13 05:07:37;;;;;;;0.10;0.10;;;16.80;99.90;16.10;97837.00;;;;5068303;28;20306;-73
2022/07/13 05:10:10;;;;;;;0.00;0.00;;;16.90;99.90;16.20;97838.00;;;;5052618;28;20238;-73
2022/07/13 05:12:42;;;;;;;0.00;0.00;;;16.90;99.90;16.20;97802.00;;;;5069815;28;20730;-73
2022/07/13 05:15:11;;;;;;;0.00;0.00;;;16.90;99.90;16.20;97851.00;;;;5082214;28;20610;-72
2022/07/13 05:17:40;;;;;;;0.00;0.00;;;17.00;99.90;16.30;97860.00;;;;5072869;28;20568;-72
2022/07/13 05:20:11;;;;;;;0.00;0.00;;;17.00;99.90;16.40;97856.00;;;;5074643;28;20205;-74
2022/07/13 05:22:45;;;;;;;0.00;0.00;;;17.10;99.90;16.50;97857.00;;;;5088950;28;20194;-73
2022/07/13 05:25:13;;;;;;;0.00;0.00;;;17.20;99.90;16.60;97862.00;;;;5077056;28;20282;-72
2022/07/13 05:27:42;;;;;;;0.00;0.00;;;17.30;99.90;16.60;97867.00;;;;5074407;28;20202;-72
2022/07/13 05:30:10;;;;;;;0.00;0.00;;;17.30;99.90;16.60;97851.00;;;;5074218;28;20330;-72
2022/07/13 05:32:38;;;;;;;0.00;0.00;;;17.30;99.90;16.70;97872.00;;;;5073963;28;20216;-73
2022/07/13 05:35:09;;;;;;;0.00;0.00;;;17.40;99.90;16.70;97867.00;;;;5073181;28;20288;-73
2022/07/13 05:37:38;;;;;;;0.00;0.00;;;17.40;99.90;16.80;97866.00;;;;5089649;28;20198;-72
2022/07/13 05:40:07;;;;;;;0.00;0.00;;;17.50;99.90;16.90;97868.00;;;;5072632;28;20312;-73
2022/07/13 05:42:36;;;;;;;0.00;0.00;;;17.60;99.90;17.00;97875.00;;;;5072767;28;20198;-73
2022/07/13 05:45:05;;;;;;;0.00;0.00;;;17.70;99.90;17.00;97876.00;;;;5074209;28;20577;-73
2022/07/13 05:47:33;;;;;;;0.00;0.00;;;17.70;99.90;17.10;97871.00;;;;5073747;28;20220;-71
2022/07/13 05:50:01;;;;;;;0.00;0.00;;;17.80;99.90;17.10;97871.00;;;;5073079;28;20224;-72
2022/07/13 05:52:33;;;;;;;0.00;0.00;;;17.80;99.90;17.20;97879.00;;;;5071964;28;20615;-71
2022/07/13 05:55:01;;;;;;;0.00;0.00;;;17.90;99.90;17.30;97873.00;;;;5089405;28;20213;-71
2022/07/13 05:57:32;;;;;;;0.00;0.00;;;18.00;99.90;17.20;97865.00;;;;5072992;28;20193;-72
2022/07/13 06:00:00;;;;;;;0.00;0.00;;;18.00;99.90;16.70;97857.00;;;;5072435;28;20218;-71
2022/07/13 06:02:39;;;;;;;0.05;0.05;;;18.00;99.90;17.50;97880.00;;;;5073000;28;20216;-71
2022/07/13 06:05:09;;;;;;;0.00;0.00;;;18.10;99.90;17.50;97872.00;;;;5071972;28;20222;-72
2022/07/13 06:07:39;;;;;;;0.10;0.10;;;18.20;99.90;17.60;97883.00;;;;5072626;28;20205;-72
2022/07/13 06:10:09;;;;;;;0.00;0.00;;;18.20;99.90;17.70;97879.00;;;;5071562;28;20275;-71
2022/07/13 06:12:37;;;;;;;0.00;0.00;;;18.30;99.90;17.70;97879.00;;;;5073324;28;20194;-71
2022/07/13 06:15:06;;;;;;;0.00;0.00;;;18.40;99.90;17.80;97878.00;;;;5072782;28;20194;-71
2022/07/13 06:17:34;;;;;;;0.00;0.00;;;18.40;99.90;17.80;97586.00;;;;5072586;28;20197;-72
2022/07/13 06:20:05;;;;;;;0.00;0.00;;;18.50;99.90;17.90;97881.00;;;;5072345;28;20572;-72
2022/07/13 06:22:33;;;;;;;0.10;0.10;;;18.60;99.90;17.90;97881.00;;;;5074477;28;20205;-72
2022/07/13 06:25:03;;;;;;;0.00;0.00;;;18.60;99.90;17.90;97845.00;;;;5072992;28;20303;-72
2022/07/13 06:27:31;;;;;;;0.00;0.00;;;18.70;99.90;18.00;97849.00;;;;5073664;28;20181;-72
2022/07/13 06:29:59;;;;;;;0.00;0.00;;;18.70;99.90;18.00;97842.00;;;;5072596;28;20291;-72
2022/07/13 06:32:27;;;;;;;0.00;0.00;;;18.80;99.90;18.30;97851.00;;;;5074156;28;20224;-72
2022/07/13 06:34:56;;;;;;;0.00;0.00;;;18.90;99.90;18.30;97837.00;;;;5074577;28;20197;-72
2022/07/13 06:37:28;;;;;;;0.00;0.00;;;19.10;99.90;18.60;97866.00;;;;5074661;28;20613;-73
2022/07/13 06:40:15;;;;;;;0.00;0.00;;;19.20;99.90;18.80;97845.00;;;;5071955;28;20209;-73
2022/07/13 06:42:44;;;;;;;0.00;0.00;;;19.30;99.90;18.90;97876.00;;;;5072601;28;20194;-73
2022/07/13 06:45:12;;;;;;;0.00;0.00;;;19.50;99.90;19.00;97876.00;;;;5071963;28;20339;-73
2022/07/13 06:47:42;;;;;;;0.00;0.00;;;19.60;99.90;19.10;97891.00;;;;5071985;28;20182;-73
2022/07/13 06:50:11;;;;;;;0.00;0.00;;;19.70;99.90;19.30;97886.00;;;;5071850;28;20305;-73
2022/07/13 06:52:40;;;;;;;0.00;0.00;;;19.80;99.90;19.40;97868.00;;;;5070997;28;20193;-72
2022/07/13 06:55:09;;;;;;;0.00;0.00;;;19.90;99.90;19.50;97847.00;;;;5072378;28;20243;-73
2022/07/13 06:57:39;;;;;;;0.00;0.00;;;20.00;99.90;19.70;97868.00;;;;5071869;28;20190;-73
2022/07/13 07:00:09;;;;;;;0.00;0.00;;;20.20;99.90;19.80;97869.00;;;;5071802;28;20205;-73
2022/07/13 07:02:37;;;;;;;0.00;0.00;;;20.30;99.90;19.90;97866.00;;;;5071927;28;20287;-72
2022/07/13 07:05:09;;;;;;;0.00;0.00;;;20.40;99.90;20.00;97854.00;;;;5071571;28;20222;-73
2022/07/13 07:07:38;;;;;;;0.00;0.00;;;20.60;99.90;20.20;97866.00;;;;5071532;28;20200;-73
2022/07/13 07:10:09;;;;;;;0.00;0.00;;;20.70;99.90;20.40;97856.00;;;;5071885;28;20220;-72
2022/07/13 07:12:39;;;;;;;0.00;0.00;;;20.90;99.90;20.50;97862.00;;;;5072149;28;20221;-73
2022/07/13 07:15:08;;;;;;;0.00;0.00;;;20.90;99.90;20.60;97860.00;;;;5071631;28;20208;-73
2022/07/13 07:17:45;;;;;;;0.00;0.00;;;21.10;99.90;20.70;97861.00;;;;5071476;28;20664;-73
2022/07/13 07:20:14;;;;;;;0.00;0.00;;;21.20;99.90;20.80;97853.00;;;;5064928;28;20685;-73
2022/07/13 07:22:46;;;;;;;0.00;0.00;;;21.30;99.90;21.00;97850.00;;;;5058454;28;20205;-73
2022/07/13 07:25:15;;;;;;;0.00;0.00;;;21.50;99.90;21.10;97850.00;;;;5051449;28;20221;-73
2022/07/13 07:27:44;;;;;;;0.00;0.00;;;21.60;99.90;21.30;97842.00;;;;5052801;28;20554;-73
2022/07/13 07:30:13;;;;;;;0.00;0.00;;;21.70;99.90;21.40;97834.00;;;;5070834;28;20218;-73
2022/07/13 07:32:41;;;;;;;0.00;0.00;;;21.80;99.90;21.40;97834.00;;;;5071283;28;20193;-73
2022/07/13 07:35:10;;;;;;;0.00;0.00;;;21.90;99.90;21.60;97838.00;;;;5071283;28;20201;-73
2022/07/13 07:37:39;;;;;;;0.00;0.00;;;22.00;99.90;21.70;97838.00;;;;5071089;28;20669;-73
2022/07/13 07:40:10;;;;;;;0.00;0.00;;;22.10;99.90;21.80;97834.00;;;;5071265;28;20212;-73
2022/07/13 07:42:38;;;;;;;0.00;0.00;;;22.30;99.90;21.90;97851.00;;;;5071426;28;20190;-73
2022/07/13 07:45:09;;;;;;;0.00;0.00;;;22.40;99.90;22.10;97841.00;;;;5071291;28;20219;-73
2022/07/13 07:47:38;;;;;;;0.00;0.00;;;22.50;99.90;22.20;97852.00;;;;5071335;28;20197;-73
2022/07/13 07:50:08;;;;;;;0.00;0.00;;;22.60;99.90;22.10;97854.00;;;;5071596;28;20214;-73
2022/07/13 07:52:36;;;;;;;0.00;0.00;;;22.70;99.90;22.30;97848.00;;;;5070559;28;20661;-73
2022/07/13 07:55:24;;;;;;;0.00;0.00;;;22.70;99.90;22.40;97836.00;;;;5071188;28;20891;-73
2022/07/13 07:57:53;;;;;;;0.00;0.00;;;22.90;99.90;22.50;97840.00;;;;5064382;28;20627;-73
2022/07/13 08:00:23;;;;;;;0.00;0.00;;;22.90;99.90;22.60;97838.00;;;;5058851;28;20701;-73
2022/07/13 08:02:51;;;;;;;0.00;0.00;;;23.00;99.90;22.80;97841.00;;;;5049918;28;20198;-73
2022/07/13 08:05:20;;;;;;;0.00;0.00;;;23.20;99.90;22.90;97836.00;;;;5051054;28;20218;-73
2022/07/13 08:07:48;;;;;;;0.00;0.00;;;23.40;99.90;23.10;97831.00;;;;5051236;28;20198;-73
2022/07/13 08:10:17;;;;;;;0.00;0.00;;;23.50;99.90;23.10;97829.00;;;;5050624;28;20215;-72
2022/07/13 08:13:04;;;;;;;0.00;0.00;;;23.60;99.90;23.40;97836.00;;;;5051181;28;20276;-73
2022/07/13 08:15:34;;;;;;;0.00;0.00;;;23.80;99.90;23.60;97830.00;;;;5051162;28;20190;-73
2022/07/13 08:18:03;;;;;;;0.00;0.00;;;24.00;99.90;23.90;97820.00;;;;5050715;28;20192;-73
2022/07/13 08:20:31;;;;;;;0.00;0.00;;;24.20;99.90;24.00;97830.00;;;;5050389;28;20210;-73
2022/07/13 08:23:00;;;;;;;0.00;0.00;;;24.40;99.90;24.40;97825.00;;;;5051135;28;20198;-73
2022/07/13 08:25:28;;;;;;;0.00;0.00;;;24.70;99.90;24.60;97812.00;;;;5051105;28;20226;-73
2022/07/13 08:27:59;;;;;;;0.00;0.00;;;24.90;99.50;24.80;97819.00;;;;5050967;28;20199;-73
2022/07/13 08:30:27;;;;;;;0.00;0.00;;;25.20;99.10;25.20;97818.00;;;;5051874;28;20211;-73
2022/07/13 08:32:56;;;;;;;0.00;0.00;;;25.50;98.90;25.30;97817.00;;;;5051388;28;20194;-73
2022/07/13 08:40:56;;;;;;;0.00;0.00;;;25.80;97.40;25.70;97826.00;;;;5050992;28;20662;-73
2022/07/13 08:43:26;;;;;;;0.00;0.00;;;26.00;97.10;25.70;97811.00;;;;5054871;28;20198;-72
2022/07/13 08:45:54;;;;;;;0.00;0.00;;;26.00;96.90;25.60;97814.00;;;;5054648;28;20268;-73
2022/07/13 08:48:29;;;;;;;0.00;0.00;;;26.00;96.90;25.60;97820.00;;;;5054518;28;20206;-73
2022/07/13 08:50:57;;;;;;;0.00;0.00;;;26.00;96.70;25.60;97802.00;;;;5054700;28;20197;-73
2022/07/13 08:53:26;;;;;;;0.00;0.00;;;26.10;97.10;25.70;97816.00;;;;5055008;28;20202;-73
2022/07/13 08:55:56;;;;;;;0.00;0.00;;;26.10;96.80;25.60;97820.00;;;;5054668;28;20194;-73
2022/07/13 08:58:25;;;;;;;0.00;0.00;;;25.90;96.70;25.50;97815.00;;;;5054265;28;20225;-73
2022/07/13 09:00:53;;;;;;;0.00;0.00;;;25.90;96.90;25.40;97816.00;;;;5054854;28;20191;-73
2022/07/13 09:03:21;;;;;;;0.00;0.00;;;25.80;96.50;25.50;97814.00;;;;5054144;28;20201;-73
2022/07/13 09:05:51;;;;;;;0.00;0.00;;;25.90;96.90;25.60;97812.00;;;;5054262;28;20225;-73
2022/07/13 09:08:20;;;;;;;0.00;0.00;;;26.00;96.30;25.70;97786.00;;;;5053981;28;20209;-73
2022/07/13 09:10:54;;;;;;;0.00;0.00;;;26.10;96.20;25.70;97817.00;;;;5054456;28;20194;-73
2022/07/13 09:13:38;;;;;;;0.00;0.00;;;26.10;95.10;25.90;97811.00;;;;5054308;28;20216;-73
2022/07/13 09:16:14;;;;;;;0.00;0.00;;;26.20;95.10;26.20;97812.00;;;;5054337;28;20199;-73
2022/07/13 09:18:43;;;;;;;0.00;0.00;;;26.50;93.90;26.10;97805.00;;;;5054767;28;20712;-73
2022/07/13 09:21:13;;;;;;;0.00;0.00;;;26.50;92.80;26.00;97801.00;;;;5055255;28;20198;-74
2022/07/13 09:23:42;;;;;;;0.00;0.00;;;26.40;91.60;26.20;97802.00;;;;5056060;28;20195;-73
2022/07/13 09:26:10;;;;;;;0.00;0.00;;;26.50;91.70;26.40;97817.00;;;;5056221;28;20218;-74
2022/07/13 09:28:43;;;;;;;0.00;0.00;;;26.70;90.40;26.60;97812.00;;;;5055648;28;20705;-73
2022/07/13 09:31:11;;;;;;;0.00;0.00;;;26.80;89.00;26.80;97776.00;;;;5062323;28;20194;-73
2022/07/13 09:33:43;;;;;;;0.00;0.00;;;27.00;90.50;26.90;97807.00;;;;5073466;28;20198;-73
2022/07/13 09:36:15;;;;;;;0.00;0.00;;;27.20;90.50;26.90;97807.00;;;;5072192;28;20198;-73
2022/07/13 09:38:45;;;;;;;0.00;0.00;;;27.30;89.50;26.90;97816.00;;;;5070502;28;20218;-73
2022/07/13 09:41:23;;;;;;;0.00;0.00;;;27.30;89.00;27.10;97813.00;;;;5054896;28;20195;-73
2022/07/13 09:46:52;;;;;;;0.00;0.00;;;27.30;88.10;26.80;97776.00;;;;5052986;28;20595;-73
2022/07/13 09:49:30;;;;;;;0.00;0.00;;;27.30;88.10;26.70;97816.00;;;;5053543;28;20214;-73
2022/07/13 09:52:01;;;;;;;0.00;0.00;;;27.10;87.40;26.70;97812.00;;;;5053808;28;20216;-74
2022/07/13 09:54:31;;;;;;;0.00;0.00;;;27.00;88.00;26.90;97815.00;;;;5054622;28;20654;-73
2022/07/13 09:57:01;;;;;;;0.00;0.00;;;27.20;89.40;27.00;97821.00;;;;5054384;28;20221;-74
2022/07/13 09:59:30;;;;;;;0.00;0.00;;;27.30;87.40;27.20;97799.00;;;;5053942;28;20690;-73
2022/07/13 10:01:58;;;;;;;0.00;0.00;;;27.40;88.60;27.20;97819.00;;;;5052552;28;20209;-75
2022/07/13 10:04:27;;;;;;;0.00;0.00;;;27.50;86.10;27.20;97819.00;;;;5085962;28;20210;-74
2022/07/13 10:07:17;;;;;;;0.00;0.00;;;27.50;86.50;27.50;97819.00;;;;5053233;28;20603;-74
2022/07/13 10:09:46;;;;;;;0.00;0.00;;;27.80;85.80;27.70;97810.00;;;;5053618;28;20228;-74
2022/07/13 10:12:15;;;;;;;0.00;0.00;;;28.00;86.90;27.90;97822.00;;;;5052263;28;20202;-72
2022/07/13 10:14:44;;;;;;;0.00;0.00;;;28.10;84.00;28.00;97807.00;;;;5053443;28;20269;-74
2022/07/13 10:17:21;;;;;;;0.00;0.00;;;28.30;85.30;28.10;97824.00;;;;5053615;28;20217;-73
2022/07/13 10:19:59;;;;;;;0.00;0.00;;;28.30;83.70;28.20;97795.00;;;;5069333;28;20234;-74
2022/07/13 10:22:35;;;;;;;0.00;0.00;;;28.40;80.90;28.30;97813.00;;;;5064420;28;20213;-74
2022/07/13 10:25:05;;;;;;;0.00;0.00;;;28.50;81.30;28.10;97772.00;;;;5051709;28;20224;-74
2022/07/13 10:27:35;;;;;;;0.00;0.00;;;28.30;80.90;28.10;97807.00;;;;5053971;28;20218;-74
2022/07/13 10:30:08;;;;;;;0.00;0.00;;;28.30;81.20;28.10;97803.00;;;;5058292;28;20576;-74
2022/07/13 10:32:40;;;;;;;0.00;0.00;;;28.40;79.20;28.10;97805.00;;;;5063940;28;20207;-74
2022/07/13 10:35:10;;;;;;;0.00;0.00;;;28.50;79.20;27.90;97805.00;;;;5052765;28;20289;-74
2022/07/13 10:38:19;;;;;;;0.00;0.00;;;28.30;79.70;28.00;97811.00;;;;5052199;28;20194;-75
2022/07/13 10:40:48;;;;;;;0.00;0.00;;;28.40;80.20;28.00;97801.00;;;;5053538;28;20245;-73
2022/07/13 10:43:18;;;;;;;0.00;0.00;;;28.30;79.30;27.80;97803.00;;;;5052833;28;20210;-72
2022/07/13 10:45:51;;;;;;;0.00;0.00;;;28.20;79.40;28.10;97806.00;;;;5052549;28;20204;-74
2022/07/13 10:48:48;;;;;;;0.00;0.00;;;28.40;81.00;28.70;97796.00;;;;5052574;28;20629;-73
2022/07/13 10:51:21;;;;;;;0.00;0.00;;;28.80;80.10;28.90;97792.00;;;;5052467;28;20186;-72
2022/07/13 10:54:10;;;;;;;0.00;0.00;;;29.00;80.50;28.70;97795.00;;;;5052852;28;20638;-73
2022/07/13 10:57:14;;;;;;;0.00;0.00;;;29.00;80.20;28.60;97794.00;;;;5084421;28;20203;-73
2022/07/13 10:59:48;;;;;;;0.00;0.00;;;28.90;80.90;28.40;97785.00;;;;5052499;28;20732;-73
2022/07/13 11:02:43;;;;;;;0.00;0.00;;;28.60;81.60;28.30;97778.00;;;;5051133;28;20208;-72
2022/07/13 11:05:11;;;;;;;0.00;0.00;;;28.50;82.10;28.20;97765.00;;;;5051669;28;20233;-73
2022/07/13 11:07:41;;;;;;;0.00;0.00;;;28.60;82.20;28.10;97789.00;;;;5051927;28;20265;-73
2022/07/13 11:10:20;;;;;;;0.00;0.00;;;28.40;82.90;27.90;97791.00;;;;5063078;28;20230;-73
2022/07/13 11:13:03;;;;;;;0.00;0.00;;;28.30;82.00;27.80;97780.00;;;;5052549;28;20530;-73
2022/07/13 11:15:47;;;;;;;0.00;0.00;;;28.20;80.60;27.90;97751.00;;;;5068110;28;20202;-72
2022/07/13 11:18:32;;;;;;;0.00;0.00;;;28.30;81.00;28.00;97775.00;;;;5069576;28;20208;-73